createdAt,value
2018-06-21T00:02:06.142Z,20.60
2018-06-21T00:04:35.182Z,20.50
2018-06-21T00:07:04.275Z,20.60
2018-06-21T00:09:33.561Z,20.40
2018-06-21T00:12:02.734Z,20.30
2018-06-21T00:14:31.822Z,20.20
2018-06-21T00:17:00.941Z,20.20
2018-06-21T00:19:30.090Z,20.30
2018-06-21T00:21:59.196Z,20.40
2018-06-21T00:24:28.407Z,20.40
2018-06-21T00:26:57.543Z,20.40
2018-06-21T00:29:26.840Z,20.30
2018-06-21T00:31:56.031Z,20.30
2018-06-21T00:34:25.174Z,20.40
2018-06-21T00:36:54.321Z,20.70
2018-06-21T00:39:23.534Z,20.60
2018-06-21T00:41:52.721Z,20.60
2018-06-21T00:44:21.917Z,20.50
2018-06-21T00:46:51.025Z,20.30
2018-06-21T00:49:20.220Z,20.30
2018-06-21T00:51:49.266Z,20.20
2018-06-21T00:54:18.438Z,20.10
2018-06-21T00:56:47.586Z,20.10
2018-06-21T00:59:16.734Z,20.00
2018-06-21T01:01:45.985Z,20.00
2018-06-21T01:04:15.194Z,20.10
2018-06-21T01:06:44.280Z,20.00
2018-06-21T01:09:13.465Z,20.50
2018-06-21T01:11:42.614Z,20.50
2018-06-21T01:14:11.885Z,20.50
2018-06-21T01:16:41.090Z,20.40
2018-06-21T01:19:10.233Z,20.40
2018-06-21T01:21:39.346Z,20.40
2018-06-21T01:24:08.506Z,20.40
2018-06-21T01:26:37.642Z,20.30
2018-06-21T01:29:06.731Z,20.40
2018-06-21T01:31:35.900Z,20.40
2018-06-21T01:34:05.086Z,20.20
2018-06-21T01:36:34.266Z,20.20
2018-06-21T01:39:03.492Z,20.20
2018-06-21T01:41:32.553Z,20.20
2018-06-21T01:44:01.734Z,20.20
2018-06-21T01:46:31.010Z,20.00
2018-06-21T01:49:00.190Z,19.90
2018-06-21T01:51:29.350Z,19.60
2018-06-21T01:53:58.540Z,19.50
2018-06-21T01:56:27.746Z,19.50
2018-06-21T01:58:56.934Z,19.50
2018-06-21T02:01:26.195Z,19.80
2018-06-21T02:03:55.406Z,20.00
2018-06-21T02:06:24.550Z,19.90
2018-06-21T02:08:53.768Z,19.70
2018-06-21T02:11:22.907Z,19.70
2018-06-21T02:13:51.987Z,19.70
2018-06-21T02:16:21.154Z,19.70
2018-06-21T02:18:50.402Z,19.60
2018-06-21T02:21:19.562Z,19.70
2018-06-21T02:23:48.695Z,19.70
2018-06-21T02:26:17.910Z,19.70
2018-06-21T02:28:47.194Z,19.60
2018-06-21T02:31:16.431Z,19.50
2018-06-21T02:33:45.601Z,19.60
2018-06-21T02:36:14.876Z,19.60
2018-06-21T02:38:44.067Z,19.50
2018-06-21T02:41:13.257Z,19.40
2018-06-21T02:43:42.484Z,19.40
2018-06-21T02:46:12.957Z,19.40
2018-06-21T02:48:42.035Z,19.40
2018-06-21T02:51:11.284Z,19.30
2018-06-21T02:53:40.402Z,19.30
2018-06-21T02:56:09.693Z,19.30
2018-06-21T02:58:39.005Z,19.30
2018-06-21T03:01:08.139Z,19.20
2018-06-21T03:03:37.343Z,19.10
2018-06-21T03:06:06.476Z,19.10
2018-06-21T03:08:35.584Z,19.10
2018-06-21T03:11:04.761Z,19.10
2018-06-21T03:13:33.967Z,19.10
2018-06-21T03:16:03.247Z,19.10
2018-06-21T03:18:32.430Z,19.00
2018-06-21T03:21:01.634Z,19.00
2018-06-21T03:23:30.871Z,19.00
2018-06-21T03:26:00.126Z,19.00
2018-06-21T03:28:29.291Z,18.90
2018-06-21T03:30:58.426Z,18.90
2018-06-21T03:33:27.517Z,18.80
2018-06-21T03:35:56.659Z,18.90
2018-06-21T03:38:25.780Z,18.90
2018-06-21T03:40:54.926Z,18.90
2018-06-21T03:43:24.035Z,18.80
2018-06-21T03:45:53.286Z,18.90
2018-06-21T03:48:22.464Z,18.80
2018-06-21T03:50:57.749Z,18.90
2018-06-21T03:53:26.849Z,19.00
2018-06-21T03:55:56.011Z,18.90
2018-06-21T03:58:25.095Z,19.00
2018-06-21T04:00:54.362Z,19.10
2018-06-21T04:03:23.598Z,19.00
2018-06-21T04:05:52.753Z,19.10
2018-06-21T04:08:22.049Z,19.20
2018-06-21T04:10:51.145Z,19.30
2018-06-21T04:13:20.390Z,19.30
2018-06-21T04:15:49.550Z,19.30
2018-06-21T04:18:22.820Z,19.30
2018-06-21T04:20:51.989Z,19.40
2018-06-21T04:23:21.146Z,19.50
2018-06-21T04:25:50.245Z,19.40
2018-06-21T04:28:20.728Z,19.40
2018-06-21T04:30:49.864Z,19.40
2018-06-21T04:33:19.158Z,19.40
2018-06-21T04:35:48.527Z,19.60
2018-06-21T04:38:17.777Z,19.60
2018-06-21T04:40:47.030Z,19.60
2018-06-21T04:43:24.329Z,19.60
2018-06-21T04:45:53.972Z,19.70
2018-06-21T04:48:23.125Z,19.90
2018-06-21T04:50:52.228Z,20.30
2018-06-21T04:53:21.378Z,20.30
2018-06-21T04:55:50.510Z,20.10
2018-06-21T04:58:19.770Z,20.30
2018-06-21T05:00:48.937Z,20.60
2018-06-21T05:03:18.203Z,20.50
2018-06-21T05:05:47.522Z,20.40
2018-06-21T05:08:16.790Z,20.30
2018-06-21T05:10:45.899Z,20.40
2018-06-21T05:13:15.014Z,20.70
2018-06-21T05:15:44.193Z,20.60
2018-06-21T05:18:13.397Z,20.80
2018-06-21T05:20:42.501Z,20.80
2018-06-21T05:23:11.678Z,21.20
2018-06-21T05:25:40.827Z,21.20
2018-06-21T05:28:10.014Z,21.20
2018-06-21T05:30:39.237Z,21.30
2018-06-21T05:33:08.564Z,21.40
2018-06-21T05:35:37.725Z,21.50
2018-06-21T05:38:06.929Z,21.50
2018-06-21T05:40:37.057Z,21.50
2018-06-21T05:43:06.310Z,21.50
2018-06-21T05:45:35.718Z,21.70
2018-06-21T05:48:05.102Z,22.00
2018-06-21T05:50:34.921Z,22.10
2018-06-21T05:53:04.146Z,22.00
2018-06-21T05:55:34.074Z,22.00
2018-06-21T05:58:03.198Z,22.10
2018-06-21T06:00:32.332Z,22.30
2018-06-21T06:03:01.519Z,22.70
2018-06-21T06:05:30.722Z,22.50
2018-06-21T06:07:59.877Z,22.60
2018-06-21T06:10:29.029Z,22.70
2018-06-21T06:12:58.122Z,22.90
2018-06-21T06:15:27.283Z,23.10
2018-06-21T06:17:56.466Z,23.30
2018-06-21T06:20:25.634Z,23.40
2018-06-21T06:22:54.740Z,23.50
2018-06-21T06:25:23.909Z,23.60
2018-06-21T06:27:53.076Z,23.80
2018-06-21T06:30:22.329Z,23.70
2018-06-21T06:32:51.322Z,24.00
2018-06-21T06:35:20.442Z,24.10
2018-06-21T06:37:49.634Z,24.10
2018-06-21T06:40:18.788Z,24.10
2018-06-21T06:42:47.898Z,24.10
2018-06-21T06:45:17.065Z,24.10
2018-06-21T06:47:46.302Z,24.10
2018-06-21T06:50:15.444Z,24.30
2018-06-21T06:52:44.554Z,24.40
2018-06-21T06:55:13.708Z,24.50
2018-06-21T06:57:42.862Z,24.50
2018-06-21T07:00:11.941Z,25.00
2018-06-21T07:02:41.091Z,25.00
2018-06-21T07:05:10.182Z,25.20
2018-06-21T07:07:39.322Z,25.20
2018-06-21T07:10:08.518Z,25.30
2018-06-21T07:12:37.886Z,25.40
2018-06-21T07:15:07.090Z,25.40
2018-06-21T07:17:36.237Z,25.60
2018-06-21T07:20:05.363Z,25.50
2018-06-21T07:22:34.482Z,25.10
2018-06-21T07:25:03.637Z,25.20
2018-06-21T07:27:32.782Z,25.20
2018-06-21T07:30:02.007Z,25.20
2018-06-21T07:32:31.196Z,25.70
2018-06-21T07:35:00.457Z,25.80
2018-06-21T07:37:29.894Z,25.80
2018-06-21T07:39:59.088Z,26.00
2018-06-21T07:42:28.339Z,25.80
2018-06-21T07:44:57.440Z,25.90
2018-06-21T07:47:26.541Z,26.10
2018-06-21T07:49:55.746Z,26.10
2018-06-21T07:52:24.874Z,26.00
2018-06-21T07:54:54.002Z,26.30
2018-06-21T07:57:23.095Z,26.40
2018-06-21T07:59:52.250Z,26.30
2018-06-21T08:02:21.709Z,26.40
2018-06-21T08:04:50.786Z,26.40
2018-06-21T08:07:19.938Z,26.50
2018-06-21T08:09:49.088Z,26.70
2018-06-21T08:12:18.243Z,26.20
2018-06-21T08:14:47.474Z,25.90
2018-06-21T08:17:16.598Z,26.00
2018-06-21T08:19:45.839Z,26.00
2018-06-21T08:22:15.067Z,25.90
2018-06-21T08:24:44.194Z,25.90
2018-06-21T08:27:13.394Z,26.10
2018-06-21T08:29:42.530Z,26.20
2018-06-21T08:32:11.780Z,26.60
2018-06-21T08:34:40.941Z,26.80
2018-06-21T08:37:10.090Z,26.80
2018-06-21T08:39:39.256Z,26.80
2018-06-21T08:42:08.308Z,26.50
2018-06-21T08:44:37.465Z,26.50
2018-06-21T08:47:06.518Z,26.50
2018-06-21T08:49:35.739Z,26.60
2018-06-21T08:52:04.867Z,26.60
2018-06-21T08:54:33.970Z,26.40
2018-06-21T08:57:03.127Z,26.40
2018-06-21T08:59:32.233Z,26.60
2018-06-21T09:02:01.319Z,26.20
2018-06-21T09:04:30.481Z,26.30
2018-06-21T09:06:59.642Z,26.50
2018-06-21T09:09:28.697Z,26.20
2018-06-21T09:11:57.922Z,26.20
2018-06-21T09:14:27.026Z,26.40
2018-06-21T09:16:56.243Z,26.40
2018-06-21T09:19:25.394Z,26.20
2018-06-21T09:21:54.565Z,26.10
2018-06-21T09:24:23.565Z,26.50
2018-06-21T09:26:52.777Z,26.80
2018-06-21T09:29:21.965Z,27.00
2018-06-21T09:31:50.818Z,26.80
2018-06-21T09:34:20.077Z,26.30
2018-06-21T09:36:49.346Z,26.20
2018-06-21T09:39:23.689Z,26.70
2018-06-21T09:41:58.315Z,27.10
2018-06-21T09:44:33.258Z,27.40
2018-06-21T09:47:07.708Z,27.40
2018-06-21T09:49:36.953Z,27.70
2018-06-21T09:52:06.744Z,27.90
2018-06-21T09:54:35.978Z,27.70
2018-06-21T09:57:05.201Z,27.60
2018-06-21T09:59:34.378Z,27.60
2018-06-21T10:02:03.599Z,27.30
2018-06-21T10:04:32.807Z,27.10
2018-06-21T10:07:02.086Z,27.20
2018-06-21T10:09:31.178Z,26.70
2018-06-21T10:12:00.384Z,26.60
2018-06-21T10:14:29.501Z,26.90
2018-06-21T10:16:58.687Z,26.70
2018-06-21T10:19:27.858Z,26.80
2018-06-21T10:21:57.018Z,26.90
2018-06-21T10:24:26.133Z,26.60
2018-06-21T10:26:55.317Z,26.90
2018-06-21T10:29:24.525Z,26.50
2018-06-21T10:31:53.646Z,26.80
2018-06-21T10:34:22.761Z,27.20
2018-06-21T10:36:51.882Z,27.40
2018-06-21T10:39:20.985Z,27.50
2018-06-21T10:41:50.085Z,27.60
2018-06-21T10:44:19.307Z,27.90
2018-06-21T10:46:48.478Z,28.10
2018-06-21T10:49:17.622Z,28.00
2018-06-21T10:51:46.806Z,28.20
2018-06-21T10:54:15.934Z,28.60
2018-06-21T10:56:45.011Z,28.40
2018-06-21T10:59:14.260Z,27.70
2018-06-21T11:01:43.270Z,27.90
2018-06-21T11:04:12.362Z,28.60
2018-06-21T11:06:41.587Z,28.40
2018-06-21T11:09:10.677Z,28.60
2018-06-21T11:11:39.794Z,29.00
2018-06-21T11:14:09.018Z,29.70
2018-06-21T11:16:38.230Z,29.40
2018-06-21T11:19:07.339Z,29.10
2018-06-21T11:21:36.526Z,29.60
2018-06-21T11:24:05.765Z,29.80
2018-06-21T11:26:34.937Z,30.30
2018-06-21T11:29:04.054Z,30.30
2018-06-21T11:31:33.218Z,30.00
2018-06-21T11:34:02.402Z,30.20
2018-06-21T11:36:31.596Z,29.80
2018-06-21T11:39:00.766Z,29.90
2018-06-21T11:41:29.893Z,30.50
2018-06-21T11:43:59.152Z,29.70
2018-06-21T11:46:28.326Z,29.30
2018-06-21T11:48:57.629Z,29.60
2018-06-21T11:51:26.791Z,30.30
2018-06-21T11:53:56.085Z,29.50
2018-06-21T11:56:25.266Z,29.30
2018-06-21T11:58:54.325Z,28.60
2018-06-21T12:01:23.522Z,28.70
2018-06-21T12:03:52.674Z,28.60
2018-06-21T12:06:21.838Z,28.10
2018-06-21T12:08:51.003Z,27.40
2018-06-21T12:11:20.281Z,27.30
2018-06-21T12:13:49.427Z,26.90
2018-06-21T12:16:18.606Z,26.50
2018-06-21T12:18:47.672Z,26.40
2018-06-21T12:21:16.768Z,26.60
2018-06-21T12:23:45.921Z,26.90
2018-06-21T12:26:15.063Z,27.10
2018-06-21T12:28:44.189Z,27.10
2018-06-21T12:31:13.299Z,26.70
2018-06-21T12:33:42.475Z,26.80
2018-06-21T12:36:11.607Z,26.40
2018-06-21T12:38:40.800Z,26.30
2018-06-21T12:41:09.929Z,26.20
2018-06-21T12:43:39.180Z,26.10
2018-06-21T12:46:08.258Z,26.00
2018-06-21T12:48:37.395Z,26.00
2018-06-21T12:51:06.599Z,25.90
2018-06-21T12:53:35.838Z,26.10
2018-06-21T12:56:04.878Z,26.30
2018-06-21T12:58:33.983Z,26.80
2018-06-21T13:01:03.129Z,27.30
2018-06-21T13:03:32.316Z,27.60
2018-06-21T13:06:01.469Z,28.40
2018-06-21T13:08:47.494Z,29.00
2018-06-21T13:11:34.059Z,29.40
2018-06-21T13:14:23.121Z,28.90
2018-06-21T13:16:52.214Z,28.70
2018-06-21T13:19:21.644Z,29.10
2018-06-21T13:21:50.821Z,29.40
2018-06-21T13:24:20.025Z,29.50
2018-06-21T13:26:49.217Z,29.30
2018-06-21T13:29:18.486Z,28.90
2018-06-21T13:31:47.638Z,28.20
2018-06-21T13:34:16.823Z,27.60
2018-06-21T13:36:45.951Z,27.30
2018-06-21T13:39:15.123Z,27.10
2018-06-21T13:41:44.233Z,26.90
2018-06-21T13:44:13.410Z,26.70
2018-06-21T13:46:42.663Z,25.90
2018-06-21T13:49:11.802Z,25.20
2018-06-21T13:51:41.203Z,24.60
2018-06-21T13:54:11.267Z,23.40
2018-06-21T13:56:40.943Z,22.20
2018-06-21T13:59:15.826Z,21.80
2018-06-21T14:01:49.122Z,21.50
2018-06-21T14:04:22.533Z,21.50
2018-06-21T14:06:51.950Z,21.50
2018-06-21T14:09:24.094Z,21.40
2018-06-21T14:11:53.330Z,21.40
2018-06-21T14:14:22.561Z,21.50
2018-06-21T14:16:51.696Z,21.80
2018-06-21T14:19:20.987Z,22.10
2018-06-21T14:21:50.024Z,22.20
2018-06-21T14:24:19.229Z,22.50
2018-06-21T14:26:48.446Z,23.00
2018-06-21T14:29:17.578Z,23.70
2018-06-21T14:31:46.954Z,24.40
2018-06-21T14:34:16.094Z,24.90
2018-06-21T14:36:45.219Z,25.20
2018-06-21T14:39:14.511Z,25.50
2018-06-21T14:41:43.651Z,25.60
2018-06-21T14:44:12.850Z,25.40
2018-06-21T14:46:42.108Z,25.10
2018-06-21T14:49:12.317Z,24.70
2018-06-21T14:51:41.415Z,24.60
2018-06-21T14:54:10.593Z,24.50
2018-06-21T14:56:39.774Z,24.40
2018-06-21T14:59:08.873Z,24.50
2018-06-21T15:01:38.084Z,24.40
2018-06-21T15:04:07.331Z,24.40
2018-06-21T15:06:36.543Z,24.30
2018-06-21T15:09:10.458Z,24.30
2018-06-21T15:11:39.626Z,24.20
2018-06-21T15:14:16.443Z,24.20
2018-06-21T15:16:45.697Z,24.20
2018-06-21T15:19:14.834Z,24.10
2018-06-21T15:21:44.128Z,24.00
2018-06-21T15:24:13.443Z,23.90
2018-06-21T15:26:42.583Z,23.90
2018-06-21T15:29:11.903Z,23.90
2018-06-21T15:31:41.063Z,24.00
2018-06-21T15:34:10.266Z,24.10
2018-06-21T15:36:39.466Z,24.30
2018-06-21T15:39:19.254Z,24.40
2018-06-21T15:41:48.481Z,24.40
2018-06-21T15:44:18.059Z,24.40
2018-06-21T15:46:47.231Z,24.20
2018-06-21T15:49:16.497Z,24.10
2018-06-21T15:51:45.650Z,24.20
2018-06-21T15:54:14.888Z,24.20
2018-06-21T15:56:44.059Z,23.90
2018-06-21T15:59:13.246Z,23.90
2018-06-21T16:01:42.519Z,23.80
2018-06-21T16:04:11.719Z,23.80
2018-06-21T16:06:40.851Z,23.80
2018-06-21T16:09:10.788Z,23.90
2018-06-21T16:11:40.274Z,24.10
2018-06-21T16:14:09.391Z,24.20
2018-06-21T16:16:38.514Z,24.20
2018-06-21T16:19:07.694Z,24.10
2018-06-21T16:21:36.971Z,24.10
2018-06-21T16:24:06.122Z,24.10
2018-06-21T16:26:35.402Z,23.90
2018-06-21T16:29:04.445Z,23.90
2018-06-21T16:31:33.682Z,23.90
2018-06-21T16:34:02.777Z,23.90
2018-06-21T16:36:31.909Z,24.00
2018-06-21T16:39:01.146Z,24.00
2018-06-21T16:41:30.368Z,24.00
2018-06-21T16:43:59.492Z,23.90
2018-06-21T16:46:29.081Z,23.70
2018-06-21T16:48:59.085Z,23.70
2018-06-21T16:51:29.483Z,23.60
2018-06-21T16:53:59.122Z,23.50
2018-06-21T16:56:28.958Z,23.40
2018-06-21T16:58:59.118Z,23.40
2018-06-21T17:01:29.174Z,23.30
2018-06-21T17:03:59.045Z,23.30
2018-06-21T17:06:29.252Z,23.40
2018-06-21T17:08:59.343Z,23.60
2018-06-21T17:11:29.300Z,23.60
2018-06-21T17:13:59.246Z,23.60
2018-06-21T17:16:29.345Z,23.60
2018-06-21T17:18:59.310Z,23.60
2018-06-21T17:21:29.366Z,23.60
2018-06-21T17:23:59.398Z,23.60
2018-06-21T17:26:29.361Z,23.40
2018-06-21T17:28:59.422Z,23.40
2018-06-21T17:31:29.546Z,23.40
2018-06-21T17:33:59.425Z,23.40
2018-06-21T17:36:29.406Z,23.40
2018-06-21T17:38:59.387Z,23.30
2018-06-21T17:41:29.458Z,23.30
2018-06-21T17:43:59.525Z,23.30
2018-06-21T17:46:29.602Z,23.30
2018-06-21T18:10:31.522Z,23.00
2018-06-21T18:13:00.842Z,23.00
2018-06-21T18:15:30.081Z,22.90
2018-06-21T18:17:59.791Z,22.90
2018-06-21T18:20:29.906Z,22.90
2018-06-21T18:22:59.978Z,22.60
2018-06-21T18:25:29.946Z,22.50
2018-06-21T18:28:01.109Z,22.30
2018-06-21T18:30:30.310Z,22.30
2018-06-21T18:32:59.817Z,22.10
2018-06-21T18:35:29.919Z,22.10
2018-06-21T18:38:00.015Z,22.20
2018-06-21T18:40:29.846Z,22.20
2018-06-21T18:42:59.938Z,22.00
2018-06-21T18:45:29.998Z,21.80
2018-06-21T18:48:00.028Z,21.60
2018-06-21T18:50:30.088Z,21.50
2018-06-21T18:53:00.019Z,21.40
2018-06-21T18:55:30.091Z,21.30
2018-06-21T18:58:00.143Z,21.20
2018-06-21T19:00:30.154Z,21.10
2018-06-21T19:03:00.174Z,21.00
2018-06-21T19:05:30.194Z,21.10
2018-06-21T19:08:05.481Z,21.10
2018-06-21T19:10:40.059Z,21.00
2018-06-21T19:13:09.166Z,20.80
2018-06-21T19:15:38.238Z,20.80
2018-06-21T19:18:07.413Z,20.90
2018-06-21T19:20:36.551Z,20.80
2018-06-21T19:23:05.810Z,20.60
2018-06-21T19:25:35.075Z,20.70
2018-06-21T19:28:04.186Z,20.60
2018-06-21T19:30:33.382Z,20.70
2018-06-21T19:33:02.514Z,20.60
2018-06-21T19:35:31.654Z,20.50
2018-06-21T19:38:00.748Z,20.30
2018-06-21T19:40:30.410Z,20.30
2018-06-21T19:43:00.593Z,20.20
2018-06-21T19:45:30.671Z,20.20
2018-06-21T19:48:00.478Z,20.20
2018-06-21T19:50:30.621Z,20.10
2018-06-21T19:53:00.754Z,20.00
2018-06-21T19:55:30.812Z,20.00
2018-06-21T19:58:00.631Z,19.90
2018-06-21T20:00:30.651Z,19.90
2018-06-21T20:03:01.006Z,19.90
2018-06-21T20:05:30.846Z,20.00
2018-06-21T20:08:00.778Z,19.90
2018-06-21T20:10:30.802Z,19.90
2018-06-21T20:13:06.510Z,19.80
2018-06-21T20:15:53.758Z,19.80
2018-06-21T20:18:23.280Z,19.70
2018-06-21T20:20:52.429Z,19.60
2018-06-21T20:23:21.625Z,19.50
2018-06-21T20:25:50.835Z,19.50
2018-06-21T20:28:20.058Z,19.60
2018-06-21T20:30:49.186Z,19.50
2018-06-21T20:33:18.365Z,19.50
2018-06-21T20:35:47.513Z,19.50
2018-06-21T20:38:16.762Z,19.40
2018-06-21T20:40:45.789Z,19.30
2018-06-21T20:43:14.942Z,19.30
2018-06-21T20:45:44.094Z,19.30
2018-06-21T20:48:13.143Z,19.50
2018-06-21T20:50:42.301Z,19.50
2018-06-21T20:53:11.543Z,19.40
2018-06-21T20:55:40.735Z,19.50
2018-06-21T20:58:09.880Z,19.50
2018-06-21T21:00:39.078Z,19.50
2018-06-21T21:03:08.498Z,19.40
2018-06-21T21:05:37.665Z,19.50
2018-06-21T21:08:06.858Z,19.50
2018-06-21T21:10:35.990Z,19.50
2018-06-21T21:13:05.310Z,19.40
2018-06-21T21:15:34.594Z,19.20
2018-06-21T21:18:03.806Z,19.20
2018-06-21T21:20:33.090Z,19.20
2018-06-21T21:23:02.970Z,19.00
2018-06-21T21:25:33.052Z,19.00
2018-06-21T21:28:03.098Z,19.00
2018-06-21T21:30:33.215Z,19.30
2018-06-21T21:33:03.151Z,19.10
2018-06-21T21:35:33.229Z,19.10
2018-06-21T21:38:03.270Z,19.10
2018-06-21T21:40:33.307Z,19.10
2018-06-21T21:43:03.213Z,18.90
2018-06-21T21:45:33.233Z,18.90
2018-06-21T21:48:03.284Z,18.90
2018-06-21T21:50:33.196Z,18.90
2018-06-21T21:53:03.280Z,18.70
2018-06-21T21:55:33.390Z,18.50
2018-06-21T21:58:03.429Z,18.40
2018-06-21T22:00:52.478Z,18.40
2018-06-21T22:03:21.619Z,18.30
2018-06-21T22:05:50.845Z,18.20
2018-06-21T22:08:19.978Z,18.20
2018-06-21T22:10:49.474Z,18.10
2018-06-21T22:13:19.030Z,18.10
2018-06-21T22:15:48.030Z,18.10
2018-06-21T22:18:17.158Z,18.00
2018-06-21T22:20:46.354Z,17.90
2018-06-21T22:23:15.481Z,17.80
2018-06-21T22:25:44.663Z,17.80
2018-06-21T22:28:13.787Z,17.90
2018-06-21T22:30:42.958Z,17.80
2018-06-21T22:33:12.131Z,17.70
2018-06-21T22:35:41.257Z,17.80
2018-06-21T22:38:10.446Z,17.80
2018-06-21T22:40:39.823Z,17.90
2018-06-21T22:43:08.873Z,17.90
2018-06-21T22:45:38.050Z,17.80
2018-06-21T22:48:07.314Z,17.60
2018-06-21T22:50:36.459Z,17.50
2018-06-21T22:53:05.482Z,17.60
2018-06-21T22:55:34.582Z,17.60
2018-06-21T22:58:04.186Z,17.60
2018-06-21T23:00:34.130Z,17.60
2018-06-21T23:03:04.264Z,17.60
2018-06-21T23:05:34.370Z,17.40
2018-06-21T23:08:04.233Z,17.30
2018-06-21T23:10:34.389Z,17.20
2018-06-21T23:13:04.415Z,17.30
2018-06-21T23:15:34.400Z,17.20
2018-06-21T23:18:04.362Z,17.20
2018-06-21T23:20:34.447Z,17.00
2018-06-21T23:23:04.556Z,16.90
2018-06-21T23:25:34.534Z,16.90
2018-06-21T23:28:04.511Z,16.80
2018-06-21T23:30:34.556Z,16.90
2018-06-21T23:33:04.566Z,16.70
2018-06-21T23:35:34.666Z,16.60
2018-06-21T23:38:04.864Z,16.50
2018-06-21T23:40:34.622Z,16.40
2018-06-21T23:43:04.764Z,16.50
2018-06-21T23:45:34.815Z,16.40
2018-06-21T23:48:04.847Z,16.50
2018-06-21T23:50:34.802Z,16.40
2018-06-21T23:53:04.970Z,16.50
2018-06-21T23:55:34.734Z,16.20
2018-06-21T23:58:05.007Z,16.10
